createdAt,value
2022-09-02T00:00:48.530Z,100.00
2022-09-02T00:04:08.108Z,100.00
2022-09-02T00:07:24.615Z,100.00
2022-09-02T00:10:44.429Z,100.00
2022-09-02T00:14:04.085Z,100.00
2022-09-02T00:17:20.648Z,100.00
2022-09-02T00:20:38.300Z,100.00
2022-09-02T00:23:56.131Z,100.00
2022-09-02T00:27:13.027Z,100.00
2022-09-02T00:30:30.494Z,100.00
2022-09-02T00:33:46.964Z,100.00
2022-09-02T00:37:03.255Z,100.00
2022-09-02T00:40:24.107Z,100.00
2022-09-02T00:43:54.716Z,100.00
2022-09-02T00:47:12.143Z,100.00
2022-09-02T00:50:33.079Z,100.00
2022-09-02T00:53:53.144Z,100.00
2022-09-02T00:57:19.843Z,100.00
2022-09-02T01:00:43.301Z,100.00
2022-09-02T01:04:00.700Z,100.00
2022-09-02T01:07:18.698Z,100.00
2022-09-02T01:10:45.583Z,100.00
2022-09-02T01:14:02.652Z,100.00
2022-09-02T01:17:21.194Z,100.00
2022-09-02T01:20:37.776Z,100.00
2022-09-02T01:23:56.547Z,100.00
2022-09-02T01:27:13.004Z,100.00
2022-09-02T01:30:33.727Z,100.00
2022-09-02T01:33:52.165Z,100.00
2022-09-02T01:37:11.074Z,100.00
2022-09-02T01:40:28.765Z,100.00
2022-09-02T01:43:45.501Z,100.00
2022-09-02T01:47:02.692Z,100.00
2022-09-02T01:50:19.751Z,100.00
2022-09-02T01:53:37.545Z,100.00
2022-09-02T01:56:56.535Z,100.00
2022-09-02T02:00:18.395Z,100.00
2022-09-02T02:03:34.696Z,100.00
2022-09-02T02:06:53.564Z,100.00
2022-09-02T02:10:13.503Z,100.00
2022-09-02T02:13:31.716Z,100.00
2022-09-02T02:16:48.094Z,100.00
2022-09-02T02:20:04.396Z,100.00
2022-09-02T02:23:20.684Z,100.00
2022-09-02T02:26:38.157Z,100.00
2022-09-02T02:29:56.220Z,100.00
2022-09-02T02:33:12.813Z,100.00
2022-09-02T02:36:30.541Z,100.00
2022-09-02T02:39:49.686Z,100.00
2022-09-02T02:43:06.459Z,100.00
2022-09-02T02:46:23.581Z,100.00
2022-09-02T02:49:43.734Z,100.00
2022-09-02T02:53:03.159Z,100.00
2022-09-02T02:56:19.438Z,100.00
2022-09-02T02:59:37.661Z,100.00
2022-09-02T03:02:54.060Z,100.00
2022-09-02T03:06:13.882Z,100.00
2022-09-02T03:09:30.194Z,100.00
2022-09-02T03:12:48.474Z,100.00
2022-09-02T03:16:06.461Z,100.00
2022-09-02T03:19:22.694Z,100.00
2022-09-02T03:22:41.905Z,100.00
2022-09-02T03:25:58.186Z,100.00
2022-09-02T03:29:19.130Z,100.00
2022-09-02T03:32:36.842Z,100.00
2022-09-02T03:35:54.046Z,100.00
2022-09-02T03:39:13.162Z,100.00
2022-09-02T03:42:32.027Z,100.00
2022-09-02T03:45:48.939Z,100.00
2022-09-02T03:49:07.757Z,100.00
2022-09-02T03:52:25.140Z,100.00
2022-09-02T03:55:43.350Z,100.00
2022-09-02T03:59:01.790Z,100.00
2022-09-02T04:02:20.687Z,100.00
2022-09-02T04:05:37.683Z,100.00
2022-09-02T04:08:55.783Z,100.00
2022-09-02T04:12:13.608Z,100.00
2022-09-02T04:15:30.746Z,100.00
2022-09-02T04:18:47.558Z,100.00
2022-09-02T04:22:04.024Z,100.00
2022-09-02T04:25:27.680Z,100.00
2022-09-02T04:28:40.932Z,100.00
2022-09-02T04:31:57.493Z,100.00
2022-09-02T04:35:15.037Z,100.00
2022-09-02T04:38:32.289Z,100.00
2022-09-02T04:41:48.900Z,100.00
2022-09-02T04:45:05.399Z,100.00
2022-09-02T04:48:24.028Z,100.00
2022-09-02T04:51:40.980Z,100.00
2022-09-02T04:54:58.704Z,100.00
2022-09-02T04:58:15.743Z,100.00
2022-09-02T05:01:36.066Z,100.00
2022-09-02T05:05:05.147Z,100.00
2022-09-02T05:08:27.273Z,100.00
2022-09-02T05:11:47.736Z,100.00
2022-09-02T05:15:08.028Z,100.00
2022-09-02T05:18:24.628Z,100.00
2022-09-02T05:21:41.407Z,100.00
2022-09-02T05:24:59.285Z,100.00
2022-09-02T05:28:23.434Z,100.00
2022-09-02T05:31:42.650Z,100.00
2022-09-02T05:35:02.988Z,100.00
2022-09-02T05:38:21.700Z,100.00
2022-09-02T05:41:40.125Z,100.00
2022-09-02T05:44:58.071Z,100.00
2022-09-02T05:48:25.374Z,100.00
2022-09-02T05:51:49.753Z,100.00
2022-09-02T05:55:07.998Z,100.00
2022-09-02T05:58:26.261Z,100.00
2022-09-02T06:01:46.094Z,100.00
2022-09-02T06:05:09.920Z,100.00
2022-09-02T06:08:27.038Z,100.00
2022-09-02T06:11:46.119Z,100.00
2022-09-02T06:15:04.602Z,100.00
2022-09-02T06:18:22.634Z,100.00
2022-09-02T06:21:43.363Z,100.00
2022-09-02T06:25:06.323Z,100.00
2022-09-02T06:28:24.411Z,100.00
2022-09-02T06:31:42.920Z,100.00
2022-09-02T06:35:01.984Z,100.00
2022-09-02T06:38:21.305Z,100.00
2022-09-02T06:41:40.539Z,100.00
2022-09-02T06:44:58.473Z,99.54
2022-09-02T06:48:14.879Z,97.28
2022-09-02T06:51:37.639Z,96.05
2022-09-02T06:54:55.780Z,93.78
2022-09-02T06:58:24.621Z,92.21
2022-09-02T07:01:42.520Z,92.49
2022-09-02T07:05:17.041Z,92.54
2022-09-02T07:08:36.570Z,89.13
2022-09-02T07:12:35.072Z,86.90
2022-09-02T07:15:54.978Z,85.31
2022-09-02T07:19:17.365Z,85.28
2022-09-02T07:22:35.503Z,84.39
2022-09-02T07:25:53.283Z,82.46
2022-09-02T07:29:11.443Z,81.60
2022-09-02T07:32:28.368Z,81.66
2022-09-02T07:35:46.108Z,79.37
2022-09-02T07:39:01.904Z,76.00
2022-09-02T07:42:20.502Z,75.20
2022-09-02T07:45:39.061Z,75.48
2022-09-02T07:48:56.374Z,73.03
2022-09-02T07:52:14.304Z,72.61
2022-09-02T07:55:32.834Z,68.80
2022-09-02T07:58:51.149Z,68.43
2022-09-02T08:02:07.662Z,66.42
2022-09-02T08:05:24.696Z,66.66
2022-09-02T08:08:41.675Z,64.74
2022-09-02T08:11:59.841Z,64.17
2022-09-02T08:15:23.011Z,63.02
2022-09-02T08:18:45.272Z,63.42
2022-09-02T08:22:10.739Z,62.15
2022-09-02T08:25:30.013Z,61.63
2022-09-02T08:28:48.409Z,61.32
2022-09-02T08:32:04.761Z,61.26
2022-09-02T08:35:22.917Z,60.10
2022-09-02T08:38:39.249Z,59.46
2022-09-02T08:45:26.892Z,57.91
2022-09-02T08:48:50.843Z,55.62
2022-09-02T08:52:10.909Z,55.91
2022-09-02T08:55:33.446Z,54.34
2022-09-02T08:58:55.301Z,54.29
2022-09-02T09:02:21.059Z,55.37
2022-09-02T09:05:53.733Z,54.99
2022-09-02T09:09:18.975Z,54.41
2022-09-02T09:12:47.382Z,52.44
2022-09-02T09:16:08.914Z,52.53
2022-09-02T09:19:30.595Z,53.14
2022-09-02T09:22:49.935Z,52.15
2022-09-02T09:26:15.170Z,51.69
2022-09-02T09:29:32.242Z,51.99
2022-09-02T09:32:55.637Z,52.80
2022-09-02T09:36:13.612Z,52.14
2022-09-02T09:39:35.925Z,54.16
2022-09-02T09:42:57.903Z,54.11
2022-09-02T09:46:36.269Z,54.19
2022-09-02T09:49:53.122Z,55.14
2022-09-02T09:53:22.783Z,56.25
2022-09-02T09:56:42.744Z,55.01
2022-09-02T10:00:02.518Z,53.70
2022-09-02T10:03:32.986Z,52.91
2022-09-02T10:06:58.708Z,52.60
2022-09-02T10:10:30.351Z,53.56
2022-09-02T10:13:48.875Z,53.96
2022-09-02T10:17:28.304Z,53.64
2022-09-02T10:24:22.924Z,52.29
2022-09-02T10:27:49.315Z,51.63
2022-09-02T10:31:14.691Z,50.08
2022-09-02T10:34:39.016Z,50.91
2022-09-02T10:38:09.215Z,51.24
2022-09-02T10:45:05.350Z,51.33
2022-09-02T10:48:36.496Z,51.85
2022-09-02T10:51:57.937Z,48.35
2022-09-02T10:55:26.094Z,49.50
2022-09-02T11:02:35.700Z,51.80
2022-09-02T11:05:59.260Z,52.44
2022-09-02T11:09:44.091Z,50.46
2022-09-02T11:13:43.098Z,51.12
2022-09-02T11:17:05.218Z,46.69
2022-09-02T11:20:31.454Z,48.84
2022-09-02T11:23:55.692Z,49.84
2022-09-02T11:27:39.089Z,49.17
2022-09-02T11:30:44.327Z,46.89
2022-09-02T11:34:09.760Z,49.52
2022-09-02T11:37:47.468Z,50.28
2022-09-02T11:41:35.400Z,49.33
2022-09-02T11:45:32.942Z,48.50
2022-09-02T11:49:54.339Z,49.68
2022-09-02T11:53:25.181Z,49.59
2022-09-02T11:56:49.517Z,50.33
2022-09-02T12:07:49.551Z,50.77
2022-09-02T12:11:12.987Z,50.92
2022-09-02T12:15:12.421Z,51.77
2022-09-02T12:18:41.532Z,50.09
2022-09-02T12:22:44.510Z,50.42
2022-09-02T12:26:08.167Z,50.63
2022-09-02T12:29:41.625Z,51.18
2022-09-02T12:33:23.467Z,51.25
2022-09-02T12:37:03.340Z,52.20
2022-09-02T12:40:31.299Z,50.75
2022-09-02T12:44:00.804Z,51.22
2022-09-02T12:47:23.214Z,51.19
2022-09-02T12:50:56.260Z,51.88
2022-09-02T12:54:13.810Z,51.46
2022-09-02T12:57:32.809Z,52.02
2022-09-02T13:01:00.334Z,50.90
2022-09-02T13:04:38.420Z,49.76
2022-09-02T13:08:38.687Z,50.39
2022-09-02T13:12:44.197Z,50.98
2022-09-02T13:16:29.171Z,50.59
2022-09-02T13:20:04.357Z,51.15
2022-09-02T13:24:17.585Z,52.47
2022-09-02T13:28:43.169Z,51.90
2022-09-02T13:32:25.666Z,52.50
2022-09-02T13:35:45.766Z,52.65
2022-09-02T13:39:02.358Z,52.11
2022-09-02T13:42:32.742Z,52.10
2022-09-02T13:45:48.419Z,51.31
2022-09-02T13:49:04.903Z,51.99
2022-09-02T13:53:00.999Z,51.70
2022-09-02T13:55:47.457Z,52.52
2022-09-02T13:59:06.007Z,52.17
2022-09-02T14:02:38.317Z,52.03
2022-09-02T14:06:01.030Z,52.29
2022-09-02T14:09:26.617Z,51.97
2022-09-02T14:12:49.966Z,53.03
2022-09-02T14:16:36.618Z,52.97
2022-09-02T14:19:52.952Z,53.16
2022-09-02T14:23:11.108Z,52.53
2022-09-02T14:26:37.955Z,52.59
2022-09-02T14:29:58.270Z,52.87
2022-09-02T14:33:47.395Z,52.22
2022-09-02T14:37:03.722Z,52.54
2022-09-02T14:40:21.747Z,52.78
2022-09-02T14:43:44.530Z,53.35
2022-09-02T14:47:06.178Z,54.50
2022-09-02T14:50:26.243Z,52.78
2022-09-02T14:53:43.822Z,52.38
2022-09-02T14:57:03.960Z,52.31
2022-09-02T15:00:25.899Z,52.37
2022-09-02T15:03:46.230Z,52.32
2022-09-02T15:07:02.483Z,52.96
2022-09-02T15:10:24.464Z,52.64
2022-09-02T15:13:42.378Z,52.27
2022-09-02T15:16:58.738Z,53.10
2022-09-02T15:20:19.828Z,52.82
2022-09-02T15:23:41.753Z,52.66
2022-09-02T15:26:57.978Z,52.68
2022-09-02T15:30:16.920Z,52.69
2022-09-02T15:33:30.906Z,52.64
2022-09-02T15:36:47.122Z,52.88
2022-09-02T15:40:03.854Z,52.50
2022-09-02T15:43:22.126Z,53.29
2022-09-02T15:46:40.961Z,52.90
2022-09-02T15:49:59.616Z,54.11
2022-09-02T15:53:16.143Z,52.96
2022-09-02T15:56:35.382Z,53.73
2022-09-02T15:59:52.248Z,53.46
2022-09-02T16:03:08.583Z,53.11
2022-09-02T16:06:25.037Z,53.68
2022-09-02T16:09:43.729Z,53.65
2022-09-02T16:13:08.737Z,53.17
2022-09-02T16:16:42.869Z,53.79
2022-09-02T16:20:00.268Z,54.31
2022-09-02T16:23:16.471Z,54.58
2022-09-02T16:26:38.926Z,54.95
2022-09-02T16:29:55.329Z,55.35
2022-09-02T16:33:14.655Z,55.60
2022-09-02T16:36:34.191Z,55.16
2022-09-02T16:39:50.836Z,55.42
2022-09-02T16:43:07.384Z,55.72
2022-09-02T16:46:24.135Z,55.03
2022-09-02T16:49:42.984Z,55.45
2022-09-02T16:53:02.564Z,55.30
2022-09-02T16:56:23.663Z,54.73
2022-09-02T16:59:43.038Z,55.25
2022-09-02T17:02:58.972Z,55.20
2022-09-02T17:06:31.024Z,55.17
2022-09-02T17:09:51.697Z,55.31
2022-09-02T17:13:09.446Z,55.73
2022-09-02T17:16:29.817Z,55.53
2022-09-02T17:19:50.406Z,55.48
2022-09-02T17:23:09.445Z,55.34
2022-09-02T17:26:28.503Z,55.19
2022-09-02T17:29:50.343Z,55.58
2022-09-02T17:33:01.318Z,55.59
2022-09-02T17:36:18.379Z,55.87
2022-09-02T17:39:34.772Z,56.18
2022-09-02T17:42:51.181Z,56.27
2022-09-02T17:46:24.262Z,56.51
2022-09-02T17:49:42.246Z,56.69
2022-09-02T17:52:58.830Z,57.08
2022-09-02T17:56:27.424Z,57.08
2022-09-02T17:59:57.894Z,57.43
2022-09-02T18:03:46.711Z,57.44
2022-09-02T18:07:09.463Z,57.31
2022-09-02T18:10:27.044Z,57.35
2022-09-02T18:13:54.754Z,57.69
2022-09-02T18:17:22.092Z,57.97
2022-09-02T18:20:49.642Z,58.08
2022-09-02T18:24:11.597Z,58.40
2022-09-02T18:27:36.391Z,58.99
2022-09-02T18:30:58.442Z,59.38
2022-09-02T18:34:34.694Z,59.27
2022-09-02T18:38:00.981Z,59.08
2022-09-02T18:41:33.420Z,59.26
2022-09-02T18:45:02.155Z,59.69
2022-09-02T18:48:22.578Z,59.63
2022-09-02T18:51:46.752Z,59.45
2022-09-02T18:55:10.707Z,59.49
2022-09-02T18:58:37.558Z,59.74
2022-09-02T19:01:57.961Z,59.49
2022-09-02T19:05:16.161Z,59.58
2022-09-02T19:08:35.650Z,59.76
2022-09-02T19:11:59.028Z,59.86
2022-09-02T19:15:34.844Z,60.17
2022-09-02T19:18:52.908Z,60.16
2022-09-02T19:22:12.734Z,60.38
2022-09-02T19:25:32.890Z,60.11
2022-09-02T19:28:52.350Z,60.27
2022-09-02T19:32:11.518Z,60.68
2022-09-02T19:35:32.993Z,60.52
2022-09-02T19:38:49.185Z,61.07
2022-09-02T19:42:05.939Z,61.65
2022-09-02T19:45:22.420Z,60.66
2022-09-02T19:48:40.226Z,60.80
2022-09-02T19:51:56.926Z,60.31
2022-09-02T19:55:17.789Z,60.23
2022-09-02T19:58:35.473Z,61.04
2022-09-02T20:01:52.807Z,61.65
2022-09-02T20:05:09.582Z,61.93
2022-09-02T20:08:28.367Z,62.08
2022-09-02T20:11:45.315Z,62.73
2022-09-02T20:15:01.658Z,63.12
2022-09-02T20:18:23.878Z,63.10
2022-09-02T20:21:44.338Z,62.83
2022-09-02T20:25:02.237Z,62.06
2022-09-02T20:28:30.051Z,62.70
2022-09-02T20:32:02.044Z,62.05
2022-09-02T20:35:54.058Z,61.86
2022-09-02T20:39:37.984Z,63.13
2022-09-02T20:43:14.643Z,63.28
2022-09-02T20:47:01.109Z,62.89
2022-09-02T20:50:43.375Z,63.54
2022-09-02T20:54:23.370Z,63.70
2022-09-02T20:57:51.478Z,63.68
2022-09-02T21:01:18.437Z,63.90
2022-09-02T21:04:48.840Z,64.38
2022-09-02T21:08:11.490Z,64.92
2022-09-02T21:11:30.672Z,64.89
2022-09-02T21:14:48.159Z,66.14
2022-09-02T21:18:09.099Z,66.39
2022-09-02T21:21:33.488Z,66.97
2022-09-02T21:24:55.688Z,65.77
2022-09-02T21:28:17.643Z,65.70
2022-09-02T21:31:39.925Z,65.39
2022-09-02T21:35:03.997Z,65.54
2022-09-02T21:38:25.063Z,65.37
2022-09-02T21:41:44.894Z,65.87
2022-09-02T21:45:14.235Z,66.32
2022-09-02T21:48:38.334Z,66.22
2022-09-02T21:51:59.370Z,66.78
2022-09-02T21:55:23.794Z,67.44
2022-09-02T21:59:36.775Z,68.11
2022-09-02T22:03:04.997Z,68.43
2022-09-02T22:06:30.956Z,68.73
2022-09-02T22:09:51.085Z,69.18
2022-09-02T22:13:09.083Z,69.54
2022-09-02T22:16:37.762Z,69.00
2022-09-02T22:19:56.076Z,68.89
2022-09-02T22:23:20.740Z,68.62
2022-09-02T22:26:47.010Z,69.43
2022-09-02T22:30:11.158Z,69.25
2022-09-02T22:33:34.513Z,69.21
2022-09-02T22:37:00.636Z,68.81
2022-09-02T22:40:25.163Z,68.75
2022-09-02T22:43:45.218Z,69.46
2022-09-02T22:47:31.786Z,69.32
2022-09-02T22:51:07.791Z,69.88
2022-09-02T22:54:24.060Z,70.46
2022-09-02T22:57:48.334Z,70.97
2022-09-02T23:01:14.306Z,72.85
2022-09-02T23:04:54.813Z,76.88
2022-09-02T23:08:12.064Z,73.71
2022-09-02T23:11:36.121Z,75.15
2022-09-02T23:15:06.485Z,78.73
2022-09-02T23:18:28.696Z,84.41
2022-09-02T23:21:51.936Z,86.01
2022-09-02T23:25:16.891Z,81.88
2022-09-02T23:28:38.937Z,81.60
2022-09-02T23:32:26.163Z,79.31
2022-09-02T23:35:49.070Z,86.53
2022-09-02T23:39:25.802Z,91.00
2022-09-02T23:42:42.687Z,92.75
2022-09-02T23:46:00.014Z,86.38
2022-09-02T23:49:23.612Z,87.29
2022-09-02T23:52:45.519Z,79.59
2022-09-02T23:56:14.771Z,79.56
2022-09-02T23:59:37.534Z,79.24
